Airport View

Enter AWOS ICAO identifier for current METAR.

ex. KFNL

26 Jun 2019 12:36

Frequency: 135.75

Phone: 907-749-2402

Other Area AWOS: PAPH - PAPN - PASD - PAOU

TAF PASD 261135Z 2612/2712 15012KT 2SM -RA BR OVC003 FM262200 15012KT 4SM BR SCT003 OVC007 AMD LTD TO CLD VIS AND WIND